Time;durP1;ratioP1;P1;durP2;ratioP2;P2;SDS_P1;SDS_P2;PMS_P1;PMS_P2;Temp;Humidity;BMP_temperature;BMP_pressure;BME280_temperature;BME280_humidity;BME280_pressure;Samples;Min_cycle;Max_cycle;Signal;HPM_P1;HPM_P2
2022/06/11 00:01:14;;;;;;;9.85;5.53;;;;;;;;;;5054075;27;96562;-77
2022/06/11 00:03:41;;;;;;;14.43;5.22;;;;;;;;;;5063006;27;94110;-77
2022/06/11 00:06:07;;;;;;;9.77;5.68;;;;;;;;;;5057758;27;93881;-77
2022/06/11 00:08:34;;;;;;;11.63;5.10;;;;;;;;;;5052003;27;92946;-77
2022/06/11 00:11:00;;;;;;;15.23;5.50;;;;;;;;;;5059535;27;94368;-77
2022/06/11 00:13:27;;;;;;;8.90;5.07;;;;;;;;;;5065084;27;92928;-76
2022/06/11 00:15:54;;;;;;;10.98;5.25;;;;;;;;;;5056886;27;93197;-77
2022/06/11 00:18:20;;;;;;;11.43;6.15;;;;;;;;;;5058386;27;91658;-77
2022/06/11 00:20:47;;;;;;;14.40;5.75;;;;;;;;;;5055203;27;92425;-77
2022/06/11 00:23:13;;;;;;;11.48;5.70;;;;;;;;;;5052510;27;93534;-77
2022/06/11 00:25:39;;;;;;;21.70;6.40;;;;;;;;;;5052324;27;95681;-77
2022/06/11 00:28:06;;;;;;;11.50;5.40;;;;;;;;;;5054817;27;95771;-77
2022/06/11 00:30:33;;;;;;;11.43;6.28;;;;;;;;;;5053581;27;93464;-77
2022/06/11 00:32:59;;;;;;;15.77;6.60;;;;;;;;;;5059115;27;92359;-77
2022/06/11 00:35:26;;;;;;;15.40;5.90;;;;;;;;;;5055253;27;93446;-77
2022/06/11 00:37:53;;;;;;;17.40;6.63;;;;;;;;;;5053124;27;92466;-77
2022/06/11 00:40:23;;;;;;;10.40;6.18;;;;;;;;;;5054829;27;93219;-77
2022/06/11 00:42:49;;;;;;;10.60;6.07;;;;;;;;;;5053871;27;93346;-77
2022/06/11 00:45:29;;;;;;;9.68;5.45;;;;;;;;;;5053437;27;92417;-77
2022/06/11 00:48:12;;;;;;;8.50;5.68;;;;;;;;;;5055051;27;94325;-77
2022/06/11 00:50:42;;;;;;;9.15;5.32;;;;;;;;;;5050596;27;96809;-77
2022/06/11 00:53:13;;;;;;;7.03;5.20;;;;;;;;;;5057395;27;92565;-77
2022/06/11 00:55:42;;;;;;;10.23;5.18;;;;;;;;;;5056294;27;93452;-77
2022/06/11 00:58:08;;;;;;;11.95;5.20;;;;;;;;;;5053872;27;92572;-77
2022/06/11 01:00:41;;;;;;;10.80;5.18;;;;;;;;;;5051850;27;93216;-76
2022/06/11 01:03:08;;;;;;;10.93;4.95;;;;;;;;;;5054238;27;93403;-77
2022/06/11 01:05:36;;;;;;;12.23;5.20;;;;;;;;;;5052494;27;92928;-75
2022/06/11 01:08:14;;;;;;;8.52;5.10;;;;;;;;;;5053443;27;93132;-77
2022/06/11 01:11:03;;;;;;;9.80;4.88;;;;;;;;;;5036005;27;96032;-77
2022/06/11 01:13:37;;;;;;;9.82;4.95;;;;;;;;;;5054326;27;92916;-77
2022/06/11 01:16:10;;;;;;;11.25;5.03;;;;;;;;;;5047222;27;95833;-77
2022/06/11 01:18:59;;;;;;;7.55;4.63;;;;;;;;;;5055225;27;93686;-77
2022/06/11 01:21:26;;;;;;;9.80;5.30;;;;;;;;;;5058542;27;92999;-77
2022/06/11 01:24:01;;;;;;;10.38;5.50;;;;;;;;;;5064152;27;93461;-77
2022/06/11 01:26:46;;;;;;;11.52;4.82;;;;;;;;;;5055591;27;93048;-77
2022/06/11 01:29:18;;;;;;;6.82;4.50;;;;;;;;;;5053134;27;93053;-77
2022/06/11 01:31:49;;;;;;;6.38;4.25;;;;;;;;;;5054215;27;94221;-76
2022/06/11 01:34:33;;;;;;;10.75;4.63;;;;;;;;;;5034044;27;91938;-77
2022/06/11 01:37:11;;;;;;;6.18;3.53;;;;;;;;;;5066772;27;93192;-77
2022/06/11 01:40:05;;;;;;;7.47;3.90;;;;;;;;;;5061290;27;93388;-77
2022/06/11 01:42:31;;;;;;;7.60;3.20;;;;;;;;;;5048546;27;94784;-77
2022/06/11 01:44:59;;;;;;;5.40;3.05;;;;;;;;;;5057243;27;93473;-77
2022/06/11 01:47:25;;;;;;;6.50;3.38;;;;;;;;;;5056558;27;92620;-77
2022/06/11 01:49:52;;;;;;;7.03;2.85;;;;;;;;;;5049692;27;92636;-77
2022/06/11 01:52:24;;;;;;;6.18;2.88;;;;;;;;;;5053854;27;93267;-77
2022/06/11 01:55:05;;;;;;;7.32;3.33;;;;;;;;;;5055469;27;92494;-77
2022/06/11 01:57:47;;;;;;;4.03;2.80;;;;;;;;;;5040238;27;94210;-78
2022/06/11 02:00:23;;;;;;;6.35;3.28;;;;;;;;;;5060537;27;94671;-77
2022/06/11 02:03:06;;;;;;;12.82;3.78;;;;;;;;;;5067193;27;92567;-76
2022/06/11 02:05:39;;;;;;;8.77;2.83;;;;;;;;;;5053115;27;94468;-77
2022/06/11 02:08:20;;;;;;;4.13;2.70;;;;;;;;;;5058526;27;95248;-76
2022/06/11 02:10:51;;;;;;;6.72;3.55;;;;;;;;;;5049880;27;96851;-77
2022/06/11 02:13:26;;;;;;;8.13;2.90;;;;;;;;;;5051712;27;93485;-74
2022/06/11 02:16:09;;;;;;;6.38;2.95;;;;;;;;;;5056483;27;92414;-77
2022/06/11 02:18:37;;;;;;;8.90;2.90;;;;;;;;;;5058664;27;93281;-77
2022/06/11 02:21:11;;;;;;;3.90;2.95;;;;;;;;;;5064486;27;94276;-77
2022/06/11 02:23:43;;;;;;;7.45;3.30;;;;;;;;;;5062179;27;92460;-77
2022/06/11 02:26:22;;;;;;;6.35;2.92;;;;;;;;;;5074179;27;92984;-77
2022/06/11 02:28:49;;;;;;;12.07;3.78;;;;;;;;;;5058993;27;92508;-76
2022/06/11 02:31:18;;;;;;;4.68;3.05;;;;;;;;;;5053357;27;94638;-77
2022/06/11 02:33:44;;;;;;;5.10;3.10;;;;;;;;;;5059675;27;97349;-77
2022/06/11 02:36:11;;;;;;;5.07;3.15;;;;;;;;;;5055145;27;92756;-77
2022/06/11 02:38:37;;;;;;;11.57;3.28;;;;;;;;;;5063704;27;92974;-77
2022/06/11 02:41:06;;;;;;;8.68;2.55;;;;;;;;;;5060343;27;93848;-77
2022/06/11 02:43:32;;;;;;;7.72;2.70;;;;;;;;;;5052705;27;92827;-76
2022/06/11 02:45:59;;;;;;;9.05;2.90;;;;;;;;;;5060201;27;94294;-77
2022/06/11 02:48:25;;;;;;;10.90;3.50;;;;;;;;;;5057297;27;92556;-77
2022/06/11 02:50:53;;;;;;;5.68;2.70;;;;;;;;;;5056445;27;93225;-77
2022/06/11 02:53:19;;;;;;;5.65;2.53;;;;;;;;;;5059058;27;94565;-76
2022/06/11 02:55:45;;;;;;;4.10;2.35;;;;;;;;;;5055495;27;92516;-77
2022/06/11 02:58:13;;;;;;;9.57;3.03;;;;;;;;;;5042805;27;94798;-77
2022/06/11 03:00:41;;;;;;;5.65;2.40;;;;;;;;;;5056011;27;92908;-77
2022/06/11 03:03:07;;;;;;;6.55;2.40;;;;;;;;;;5067369;27;92438;-77
2022/06/11 03:05:35;;;;;;;8.95;2.60;;;;;;;;;;5061699;27;93199;-77
2022/06/11 03:08:01;;;;;;;5.90;2.22;;;;;;;;;;5063397;27;93405;-77
2022/06/11 03:10:28;;;;;;;5.65;2.70;;;;;;;;;;5062979;27;93172;-77
2022/06/11 03:12:54;;;;;;;12.63;2.85;;;;;;;;;;5068637;27;94495;-77
2022/06/11 03:15:22;;;;;;;11.20;2.80;;;;;;;;;;5058854;27;91733;-77
2022/06/11 03:17:49;;;;;;;7.70;2.40;;;;;;;;;;5071869;27;92430;-77
2022/06/11 03:20:17;;;;;;;11.40;2.28;;;;;;;;;;5075937;27;93317;-77
2022/06/11 03:22:43;;;;;;;10.68;2.20;;;;;;;;;;5091867;27;94943;-77
2022/06/11 03:25:09;;;;;;;6.00;2.40;;;;;;;;;;5094102;27;95362;-77
2022/06/11 03:27:38;;;;;;;10.15;2.47;;;;;;;;;;5089043;27;94524;-77
2022/06/11 03:30:06;;;;;;;6.07;1.92;;;;;;;;;;5090276;27;92498;-77
2022/06/11 03:32:33;;;;;;;8.43;2.38;;;;;;;;;;5082936;27;92927;-77
2022/06/11 03:34:59;;;;;;;9.55;2.10;;;;;;;;;;5085129;27;92583;-77
2022/06/11 03:37:26;;;;;;;5.80;2.13;;;;;;;;;;5095968;27;93123;-76
2022/06/11 03:39:52;;;;;;;12.73;2.47;;;;;;;;;;5072655;27;93700;-77
2022/06/11 03:42:18;;;;;;;8.57;2.35;;;;;;;;;;5094152;27;92738;-75
2022/06/11 03:44:44;;;;;;;10.25;2.55;;;;;;;;;;5091475;27;92901;-76
2022/06/11 03:47:11;;;;;;;8.23;2.33;;;;;;;;;;5073712;27;95831;-76
2022/06/11 03:49:37;;;;;;;9.00;2.08;;;;;;;;;;5073898;27;92472;-75
2022/06/11 03:52:04;;;;;;;13.60;2.25;;;;;;;;;;5072540;27;93278;-76
2022/06/11 03:54:31;;;;;;;7.95;2.20;;;;;;;;;;5090773;27;93403;-76
2022/06/11 03:56:57;;;;;;;8.57;2.15;;;;;;;;;;5089662;27;93129;-76
2022/06/11 03:59:23;;;;;;;8.38;1.98;;;;;;;;;;5070524;27;94418;-75
2022/06/11 04:01:50;;;;;;;9.05;2.30;;;;;;;;;;5087566;27;92561;-76
2022/06/11 04:04:19;;;;;;;9.55;2.08;;;;;;;;;;5079359;27;93555;-76
2022/06/11 04:06:48;;;;;;;8.52;1.92;;;;;;;;;;5080720;27;93092;-76
2022/06/11 04:09:24;;;;;;;12.73;2.88;;;;;;;;;;5096855;27;92515;-76
2022/06/11 04:11:50;;;;;;;8.00;2.47;;;;;;;;;;5089200;27;95873;-76
2022/06/11 04:14:16;;;;;;;15.02;2.88;;;;;;;;;;5087361;27;95604;-76
2022/06/11 04:16:45;;;;;;;12.32;2.63;;;;;;;;;;5079382;27;93994;-76
2022/06/11 04:19:15;;;;;;;13.75;2.40;;;;;;;;;;5091684;27;93436;-75
2022/06/11 04:21:42;;;;;;;21.75;2.67;;;;;;;;;;5076852;27;92990;-75
2022/06/11 04:24:08;;;;;;;16.27;2.92;;;;;;;;;;5075639;27;93349;-75
2022/06/11 04:26:37;;;;;;;14.07;2.30;;;;;;;;;;5080068;27;94246;-76
2022/06/11 04:29:05;;;;;;;11.27;2.10;;;;;;;;;;5075534;27;91768;-74
2022/06/11 04:31:32;;;;;;;15.63;3.25;;;;;;;;;;5064041;27;93942;-75
2022/06/11 04:34:02;;;;;;;10.88;2.70;;;;;;;;;;5077085;27;93490;-76
2022/06/11 04:36:30;;;;;;;10.35;2.88;;;;;;;;;;5080557;27;94963;-76
2022/06/11 04:38:56;;;;;;;14.85;2.67;;;;;;;;;;5077012;27;93687;-76
2022/06/11 04:41:23;;;;;;;16.42;2.80;;;;;;;;;;5079018;27;92450;-76
2022/06/11 04:43:49;;;;;;;9.05;2.42;;;;;;;;;;5076325;27;93167;-76
2022/06/11 04:46:16;;;;;;;16.65;3.28;;;;;;;;;;5083773;27;93843;-76
2022/06/11 04:48:43;;;;;;;20.58;2.92;;;;;;;;;;5075403;27;92867;-76
2022/06/11 04:51:10;;;;;;;9.93;2.65;;;;;;;;;;5079940;27;94284;-75
2022/06/11 04:53:37;;;;;;;10.73;3.40;;;;;;;;;;5082479;27;92429;-76
2022/06/11 04:56:03;;;;;;;16.92;3.17;;;;;;;;;;5084951;27;93218;-75
2022/06/11 04:58:30;;;;;;;17.25;3.15;;;;;;;;;;5093577;27;92999;-76
2022/06/11 05:00:56;;;;;;;13.88;4.07;;;;;;;;;;5084998;27;96964;-76
2022/06/11 05:03:22;;;;;;;11.45;3.13;;;;;;;;;;5086725;27;95748;-76
2022/06/11 05:05:50;;;;;;;18.95;2.92;;;;;;;;;;5082336;27;93436;-75
2022/06/11 05:08:17;;;;;;;20.25;3.60;;;;;;;;;;5073257;27;93817;-76
2022/06/11 05:10:43;;;;;;;17.42;3.53;;;;;;;;;;5081608;27;93210;-76
2022/06/11 05:13:10;;;;;;;20.85;4.45;;;;;;;;;;5058072;27;94567;-75
2022/06/11 05:15:39;;;;;;;18.77;3.92;;;;;;;;;;5068381;27;93109;-76
2022/06/11 05:18:06;;;;;;;22.20;3.80;;;;;;;;;;5076190;27;94078;-76
2022/06/11 05:20:32;;;;;;;22.45;3.85;;;;;;;;;;5076154;27;93612;-76
2022/06/11 05:22:59;;;;;;;19.67;3.78;;;;;;;;;;5065688;27;93276;-76
2022/06/11 05:25:26;;;;;;;21.23;4.15;;;;;;;;;;5062376;27;95729;-75
2022/06/11 05:27:52;;;;;;;24.00;4.05;;;;;;;;;;5061691;27;92449;-76
2022/06/11 05:30:20;;;;;;;22.40;4.00;;;;;;;;;;5062088;27;93032;-73
2022/06/11 05:32:47;;;;;;;19.92;4.28;;;;;;;;;;5054466;27;94483;-75
2022/06/11 05:35:17;;;;;;;22.98;4.03;;;;;;;;;;5070588;27;92414;-76
2022/06/11 05:37:45;;;;;;;28.92;5.22;;;;;;;;;;5057948;27;95439;-76
2022/06/11 05:40:12;;;;;;;24.70;4.13;;;;;;;;;;5054570;27;94186;-76
2022/06/11 05:42:39;;;;;;;17.02;4.13;;;;;;;;;;5065352;27;91816;-75
2022/06/11 05:45:05;;;;;;;31.73;5.47;;;;;;;;;;5065519;27;93580;-76
2022/06/11 05:47:33;;;;;;;25.90;3.63;;;;;;;;;;5063580;27;94372;-76
2022/06/11 05:50:00;;;;;;;20.58;3.80;;;;;;;;;;5052104;27;94809;-77
2022/06/11 05:52:29;;;;;;;30.10;4.78;;;;;;;;;;5055096;27;93795;-75
2022/06/11 05:54:56;;;;;;;23.00;3.97;;;;;;;;;;5058721;27;92594;-76
2022/06/11 05:57:24;;;;;;;24.92;4.90;;;;;;;;;;5060807;27;93169;-76
2022/06/11 05:59:52;;;;;;;23.63;4.03;;;;;;;;;;5057864;27;93622;-76
2022/06/11 06:02:20;;;;;;;29.63;4.53;;;;;;;;;;5054341;27;92495;-75
2022/06/11 06:04:47;;;;;;;23.42;4.82;;;;;;;;;;5059339;27;93234;-75
2022/06/11 06:07:13;;;;;;;24.02;4.43;;;;;;;;;;5063900;27;91731;-76
2022/06/11 06:09:40;;;;;;;28.27;5.38;;;;;;;;;;5053702;27;92568;-75
2022/06/11 06:12:07;;;;;;;27.60;4.10;;;;;;;;;;5060867;27;94122;-75
2022/06/11 06:14:33;;;;;;;26.65;4.80;;;;;;;;;;5036730;27;95012;-76
2022/06/11 06:16:59;;;;;;;27.00;4.65;;;;;;;;;;5058667;27;95980;-75
2022/06/11 06:19:46;;;;;;;22.17;4.35;;;;;;;;;;5051852;27;93216;-75
2022/06/11 06:22:12;;;;;;;30.70;5.45;;;;;;;;;;5054521;27;92632;-76
2022/06/11 06:24:38;;;;;;;25.55;4.35;;;;;;;;;;5054261;27;94626;-75
2022/06/11 06:27:05;;;;;;;28.88;3.97;;;;;;;;;;5056969;27;94297;-75
2022/06/11 06:29:31;;;;;;;31.23;4.93;;;;;;;;;;5056559;27;93295;-75
2022/06/11 06:31:58;;;;;;;24.70;4.88;;;;;;;;;;5043169;27;92607;-74
2022/06/11 06:34:25;;;;;;;30.08;6.35;;;;;;;;;;5056292;27;92539;-74
2022/06/11 06:36:51;;;;;;;22.08;3.88;;;;;;;;;;5075632;27;94215;-74
2022/06/11 06:39:17;;;;;;;30.10;4.57;;;;;;;;;;5072924;27;95850;-73
2022/06/11 06:41:43;;;;;;;31.95;4.60;;;;;;;;;;5060841;27;92471;-73
2022/06/11 06:44:10;;;;;;;35.45;5.30;;;;;;;;;;5029473;27;92961;-74
2022/06/11 06:46:36;;;;;;;25.52;4.70;;;;;;;;;;5050688;27;94557;-74
2022/06/11 06:49:02;;;;;;;28.75;4.35;;;;;;;;;;5053617;27;94338;-74
2022/06/11 06:51:29;;;;;;;23.73;4.10;;;;;;;;;;5054947;27;93252;-75
2022/06/11 06:53:55;;;;;;;25.88;4.28;;;;;;;;;;5053285;27;92698;-75
2022/06/11 06:56:26;;;;;;;30.52;4.88;;;;;;;;;;5053429;27;93344;-75
2022/06/11 06:58:52;;;;;;;27.08;4.53;;;;;;;;;;5062401;27;93150;-75
2022/06/11 07:01:19;;;;;;;23.58;4.60;;;;;;;;;;5069000;27;92464;-76
2022/06/11 07:03:45;;;;;;;19.00;4.07;;;;;;;;;;5053218;27;94808;-72
2022/06/11 07:06:33;;;;;;;31.70;4.78;;;;;;;;;;5053285;27;93030;-75
2022/06/11 07:09:00;;;;;;;28.92;4.57;;;;;;;;;;5061390;27;92570;-74
2022/06/11 07:11:26;;;;;;;25.60;5.05;;;;;;;;;;5053854;27;93249;-72
2022/06/11 07:13:53;;;;;;;25.17;4.30;;;;;;;;;;5051509;27;92866;-71
2022/06/11 07:16:22;;;;;;;28.45;5.25;;;;;;;;;;5062450;27;93222;-72
2022/06/11 07:18:50;;;;;;;28.45;4.82;;;;;;;;;;5053538;27;93173;-73
2022/06/11 07:21:19;;;;;;;19.30;4.18;;;;;;;;;;5053665;27;91738;-74
2022/06/11 07:23:49;;;;;;;25.00;4.32;;;;;;;;;;5053266;27;93528;-73
2022/06/11 07:26:15;;;;;;;;;;;;;;;;;;5060913;27;93963;-71
2022/06/11 07:28:44;;;;;;;23.77;4.32;;;;;;;;;;5073962;27;118560;-72
2022/06/11 07:31:11;;;;;;;22.17;3.95;;;;;;;;;;5056307;27;95523;-73
2022/06/11 07:33:41;;;;;;;21.98;4.28;;;;;;;;;;5050597;27;92466;-75
2022/06/11 07:36:07;;;;;;;19.77;4.33;;;;;;;;;;5065350;27;94260;-76
2022/06/11 07:38:33;;;;;;;23.42;4.57;;;;;;;;;;5076791;27;93650;-78
2022/06/11 07:41:00;;;;;;;25.55;4.68;;;;;;;;;;5060592;27;92480;-77
2022/06/11 07:43:26;;;;;;;20.05;3.40;;;;;;;;;;5057015;27;93501;-75
2022/06/11 07:45:52;;;;;;;30.38;4.53;;;;;;;;;;5059329;27;92756;-77
2022/06/11 07:48:19;;;;;;;23.27;4.05;;;;;;;;;;5053262;27;92890;-76
2022/06/11 07:50:47;;;;;;;23.20;3.88;;;;;;;;;;5056861;27;93278;-78
2022/06/11 07:53:14;;;;;;;27.52;5.28;;;;;;;;;;5060606;27;94904;-77
2022/06/11 07:55:43;;;;;;;27.63;4.93;;;;;;;;;;5073420;27;95480;-77
2022/06/11 07:58:10;;;;;;;17.27;3.50;;;;;;;;;;5056065;27;93371;-77
2022/06/11 08:00:39;;;;;;;19.08;3.08;;;;;;;;;;5056630;27;92469;-77
2022/06/11 08:03:05;;;;;;;16.77;3.42;;;;;;;;;;5052426;27;92978;-76
2022/06/11 08:05:33;;;;;;;21.83;3.30;;;;;;;;;;5057508;27;93444;-77
2022/06/11 08:08:00;;;;;;;21.80;4.18;;;;;;;;;;5056330;27;93236;-77
2022/06/11 08:10:27;;;;;;;25.50;4.15;;;;;;;;;;5069378;27;94239;-77
2022/06/11 08:12:53;;;;;;;21.45;3.50;;;;;;;;;;5072173;27;93260;-77
2022/06/11 08:15:20;;;;;;;20.65;4.53;;;;;;;;;;5042827;27;92455;-77
2022/06/11 08:17:46;;;;;;;16.67;3.90;;;;;;;;;;5055319;27;95562;-78
2022/06/11 08:20:15;;;;;;;16.17;3.92;;;;;;;;;;5057245;27;92490;-77
2022/06/11 08:22:42;;;;;;;22.33;4.22;;;;;;;;;;5055315;27;92685;-77
2022/06/11 08:25:08;;;;;;;22.73;4.60;;;;;;;;;;5056092;27;93528;-78
2022/06/11 08:27:34;;;;;;;19.50;3.38;;;;;;;;;;5056627;27;92571;-78
2022/06/11 08:30:01;;;;;;;16.40;3.58;;;;;;;;;;5056545;27;92984;-77
2022/06/11 08:32:27;;;;;;;18.70;3.88;;;;;;;;;;5055339;27;93219;-77
2022/06/11 08:34:53;;;;;;;17.13;3.40;;;;;;;;;;5060046;27;91787;-78
2022/06/11 08:37:20;;;;;;;18.08;3.78;;;;;;;;;;5056187;27;93444;-78
2022/06/11 08:39:46;;;;;;;18.63;3.60;;;;;;;;;;5056363;27;92387;-78
2022/06/11 08:42:24;;;;;;;16.77;3.67;;;;;;;;;;5054866;27;95098;-77
2022/06/11 08:44:50;;;;;;;19.95;3.97;;;;;;;;;;5056261;27;94288;-77
2022/06/11 08:47:21;;;;;;;20.23;3.75;;;;;;;;;;5054543;27;93445;-78
2022/06/11 08:49:49;;;;;;;23.52;4.80;;;;;;;;;;5056481;27;94217;-76
2022/06/11 08:52:17;;;;;;;22.38;3.90;;;;;;;;;;5055888;27;93291;-77
2022/06/11 08:54:45;;;;;;;20.48;3.80;;;;;;;;;;5056208;27;92691;-78
2022/06/11 08:57:21;;;;;;;21.38;4.47;;;;;;;;;;5059062;27;92969;-77
2022/06/11 08:59:56;;;;;;;17.05;3.65;;;;;;;;;;5056681;27;91655;-77
2022/06/11 09:02:46;;;;;;;18.92;3.85;;;;;;;;;;5055538;27;92782;-78
2022/06/11 09:05:28;;;;;;;17.42;3.38;;;;;;;;;;5055801;27;93432;-77
2022/06/11 09:08:07;;;;;;;22.35;3.92;;;;;;;;;;5054672;27;94747;-78
2022/06/11 09:10:42;;;;;;;21.90;3.90;;;;;;;;;;5055996;27;95750;-78
2022/06/11 09:13:23;;;;;;;23.10;4.95;;;;;;;;;;5055977;27;93389;-77
2022/06/11 09:15:59;;;;;;;20.65;3.55;;;;;;;;;;5037258;27;92460;-78
2022/06/11 09:18:30;;;;;;;17.73;3.75;;;;;;;;;;5055944;27;93233;-77
2022/06/11 09:20:57;;;;;;;27.17;4.65;;;;;;;;;;5058168;27;93224;-77
2022/06/11 09:23:37;;;;;;;18.80;3.83;;;;;;;;;;5037935;27;93024;-78
2022/06/11 09:26:43;;;;;;;26.58;4.57;;;;;;;;;;5056627;27;93676;-78
2022/06/11 09:29:25;;;;;;;22.27;3.78;;;;;;;;;;4953893;28;92596;-78
2022/06/11 09:32:23;;;;;;;17.35;3.92;;;;;;;;;;4951001;28;94079;-78
2022/06/11 09:34:51;;;;;;;20.65;3.78;;;;;;;;;;4919867;28;96020;-78
2022/06/11 09:37:25;;;;;;;28.27;5.30;;;;;;;;;;4953739;28;92407;-78
2022/06/11 09:39:54;;;;;;;20.02;5.07;;;;;;;;;;4953468;28;92435;-78
2022/06/11 09:42:35;;;;;;;25.73;4.00;;;;;;;;;;4953534;28;93414;-77
2022/06/11 09:45:20;;;;;;;21.27;4.07;;;;;;;;;;4955730;28;92472;-78
2022/06/11 09:48:03;;;;;;;20.45;4.40;;;;;;;;;;4953607;28;94448;-78
2022/06/11 09:50:37;;;;;;;22.70;4.00;;;;;;;;;;4953247;28;92489;-78
2022/06/11 09:53:04;;;;;;;20.23;4.38;;;;;;;;;;4953896;28;93211;-78
2022/06/11 09:55:36;;;;;;;19.58;4.40;;;;;;;;;;4952673;28;94532;-78
2022/06/11 09:58:12;;;;;;;21.33;3.70;;;;;;;;;;4953101;28;92555;-78
2022/06/11 10:00:57;;;;;;;19.13;3.72;;;;;;;;;;5040858;27;94811;-78
2022/06/11 10:03:31;;;;;;;18.95;3.25;;;;;;;;;;5055191;27;93664;-78
2022/06/11 10:06:03;;;;;;;18.92;4.40;;;;;;;;;;5054923;27;92386;-78
2022/06/11 10:08:29;;;;;;;23.15;4.72;;;;;;;;;;5057447;27;93555;-78
2022/06/11 10:10:56;;;;;;;18.20;4.03;;;;;;;;;;5054844;27;92466;-78
2022/06/11 10:13:31;;;;;;;25.35;5.07;;;;;;;;;;5054539;27;94197;-78
2022/06/11 10:16:01;;;;;;;20.75;3.63;;;;;;;;;;5046832;27;93308;-76
2022/06/11 10:18:30;;;;;;;20.13;4.67;;;;;;;;;;5055720;27;91849;-78
2022/06/11 10:20:58;;;;;;;20.75;4.00;;;;;;;;;;5041037;27;92538;-78
2022/06/11 10:23:27;;;;;;;22.42;5.30;;;;;;;;;;5075215;27;93684;-78
2022/06/11 10:25:59;;;;;;;20.63;4.35;;;;;;;;;;5073816;27;95002;-78
2022/06/11 10:28:31;;;;;;;24.27;4.13;;;;;;;;;;5077368;27;94260;-78
2022/06/11 10:31:09;;;;;;;29.23;4.97;;;;;;;;;;5075313;27;92396;-77
2022/06/11 10:33:38;;;;;;;25.83;4.78;;;;;;;;;;5075079;27;93186;-77
2022/06/11 10:36:15;;;;;;;14.93;3.63;;;;;;;;;;5067337;27;94227;-75
2022/06/11 10:38:44;;;;;;;28.17;4.43;;;;;;;;;;5073135;27;92639;-78
2022/06/11 10:41:13;;;;;;;20.48;4.05;;;;;;;;;;5084494;27;93398;-77
2022/06/11 10:43:44;;;;;;;20.30;4.43;;;;;;;;;;5074523;27;92820;-76
2022/06/11 10:46:10;;;;;;;24.48;4.40;;;;;;;;;;5071871;27;94241;-78
2022/06/11 10:48:37;;;;;;;20.83;4.97;;;;;;;;;;5094088;27;92278;-79
2022/06/11 10:51:10;;;;;;;21.02;3.85;;;;;;;;;;5077271;27;98329;-78
2022/06/11 10:53:41;;;;;;;22.98;3.85;;;;;;;;;;5073822;27;95536;-78
2022/06/11 10:56:13;;;;;;;23.02;4.32;;;;;;;;;;5074087;27;93299;-78
2022/06/11 10:58:47;;;;;;;19.23;3.83;;;;;;;;;;5074003;27;92423;-77
2022/06/11 11:01:23;;;;;;;24.02;4.35;;;;;;;;;;5075224;27;92976;-78
2022/06/11 11:03:51;;;;;;;17.27;4.00;;;;;;;;;;5071956;27;93712;-74
2022/06/11 11:06:24;;;;;;;22.55;4.28;;;;;;;;;;5054637;27;92435;-75
2022/06/11 11:08:53;;;;;;;21.17;4.28;;;;;;;;;;5069993;27;93399;-78
2022/06/11 11:11:19;;;;;;;14.00;3.33;;;;;;;;;;5076402;27;93348;-77
2022/06/11 11:13:46;;;;;;;20.02;3.63;;;;;;;;;;5062223;27;92442;-77
2022/06/11 11:16:12;;;;;;;17.92;4.00;;;;;;;;;;5081151;27;95785;-78
2022/06/11 11:18:41;;;;;;;21.92;4.80;;;;;;;;;;5099197;27;92768;-78
2022/06/11 11:21:26;;;;;;;23.27;4.35;;;;;;;;;;5091481;27;92694;-78
2022/06/11 11:24:01;;;;;;;26.42;4.32;;;;;;;;;;5076982;27;92423;-78
2022/06/11 11:26:33;;;;;;;21.00;4.03;;;;;;;;;;5078446;27;92407;-78
2022/06/11 11:28:59;;;;;;;17.13;4.20;;;;;;;;;;5086528;27;92998;-78
2022/06/11 11:31:27;;;;;;;19.15;4.47;;;;;;;;;;5084343;27;93664;-78
2022/06/11 11:34:10;;;;;;;21.45;4.47;;;;;;;;;;5076912;27;91935;-78
2022/06/11 11:36:37;;;;;;;19.77;4.43;;;;;;;;;;5081189;27;92635;-78
2022/06/11 11:39:12;;;;;;;17.92;3.97;;;;;;;;;;5078289;27;92391;-78
2022/06/11 11:41:46;;;;;;;22.52;4.60;;;;;;;;;;5075572;27;94798;-78
2022/06/11 11:44:16;;;;;;;20.40;4.63;;;;;;;;;;5076939;27;93262;-78
2022/06/11 11:46:43;;;;;;;;;;;;;;;;;;5088254;27;92407;-78
2022/06/11 11:49:18;;;;;;;17.65;3.55;;;;;;;;;;5098870;27;121542;-78
2022/06/11 11:51:45;;;;;;;19.95;3.72;;;;;;;;;;5057633;27;94097;-78
2022/06/11 11:54:22;;;;;;;17.23;3.60;;;;;;;;;;5075913;27;92525;-78
2022/06/11 11:56:56;;;;;;;23.95;3.92;;;;;;;;;;5059564;27;93179;-78
2022/06/11 11:59:28;;;;;;;16.90;4.03;;;;;;;;;;5094059;27;91629;-78
2022/06/11 12:01:57;;;;;;;22.30;4.20;;;;;;;;;;5060570;27;93576;-78
2022/06/11 12:04:48;;;;;;;28.60;5.05;;;;;;;;;;5076239;27;93448;-78
2022/06/11 12:07:14;;;;;;;23.58;3.60;;;;;;;;;;5075764;27;94829;-78
2022/06/11 12:09:52;;;;;;;15.68;3.90;;;;;;;;;;5076509;27;95394;-78
2022/06/11 12:12:26;;;;;;;20.60;4.13;;;;;;;;;;5074401;27;94457;-76
2022/06/11 12:14:56;;;;;;;24.63;3.75;;;;;;;;;;5069386;27;92448;-78
2022/06/11 12:17:37;;;;;;;22.00;4.13;;;;;;;;;;5075946;27;93345;-78
2022/06/11 12:20:08;;;;;;;23.15;4.45;;;;;;;;;;5077163;27;93595;-78
2022/06/11 12:22:36;;;;;;;17.65;3.28;;;;;;;;;;5070078;27;92384;-78
2022/06/11 12:25:20;;;;;;;15.80;3.85;;;;;;;;;;5056638;27;93596;-78
2022/06/11 12:27:48;;;;;;;18.77;2.95;;;;;;;;;;5056429;27;92480;-78
2022/06/11 12:30:21;;;;;;;15.77;3.67;;;;;;;;;;5063816;27;94388;-78
2022/06/11 12:32:48;;;;;;;19.33;3.60;;;;;;;;;;5036307;27;96919;-78
2022/06/11 12:35:17;;;;;;;17.75;3.85;;;;;;;;;;5056435;27;92402;-78
2022/06/11 12:37:47;;;;;;;20.08;4.07;;;;;;;;;;5056041;27;92852;-79
2022/06/11 12:40:13;;;;;;;24.58;3.92;;;;;;;;;;5054495;27;93666;-78
2022/06/11 12:42:46;;;;;;;19.58;4.22;;;;;;;;;;5060535;27;92439;-79
2022/06/11 12:45:32;;;;;;;21.73;3.65;;;;;;;;;;5069875;27;93445;-78
2022/06/11 12:48:29;;;;;;;49.25;6.20;;;;;;;;;;5036776;28;92404;-78
2022/06/11 12:51:13;;;;;;;39.17;4.90;;;;;;;;;;5049978;27;93360;-78
2022/06/11 12:53:56;;;;;;;19.00;3.40;;;;;;;;;;5052937;27;94308;-77
2022/06/11 12:56:22;;;;;;;16.60;3.95;;;;;;;;;;5055202;27;92537;-77
2022/06/11 12:59:01;;;;;;;17.48;3.75;;;;;;;;;;5054044;27;94861;-78
2022/06/11 13:01:37;;;;;;;21.27;2.95;;;;;;;;;;5053833;27;94521;-78
2022/06/11 13:04:12;;;;;;;17.05;3.80;;;;;;;;;;5035929;28;92464;-78
2022/06/11 13:06:58;;;;;;;21.48;3.95;;;;;;;;;;5034044;27;93359;-79
2022/06/11 13:09:25;;;;;;;14.95;3.97;;;;;;;;;;5055918;27;92494;-78
2022/06/11 13:11:54;;;;;;;17.20;3.28;;;;;;;;;;5056594;27;95625;-78
2022/06/11 13:14:38;;;;;;;15.35;3.13;;;;;;;;;;5059533;27;93647;-78
2022/06/11 13:17:13;;;;;;;10.85;2.25;;;;;;;;;;5037860;27;91731;-78
2022/06/11 13:19:55;;;;;;;10.25;1.92;;;;;;;;;;5055615;27;92723;-78
2022/06/11 13:22:36;;;;;;;10.57;2.70;;;;;;;;;;5053081;27;93509;-78
2022/06/11 13:25:18;;;;;;;13.27;2.55;;;;;;;;;;5035066;27;95077;-78
2022/06/11 13:27:51;;;;;;;10.77;2.53;;;;;;;;;;5055885;27;95565;-77
2022/06/11 13:30:23;;;;;;;12.57;2.67;;;;;;;;;;5056707;27;93470;-77
2022/06/11 13:33:05;;;;;;;21.70;2.85;;;;;;;;;;5055161;27;92411;-77
2022/06/11 13:35:42;;;;;;;10.40;2.42;;;;;;;;;;5054376;27;93534;-77
2022/06/11 13:38:15;;;;;;;9.30;2.60;;;;;;;;;;5055624;27;92424;-77
2022/06/11 13:41:01;;;;;;;11.68;2.05;;;;;;;;;;5055584;27;92985;-77
2022/06/11 13:43:46;;;;;;;15.02;2.72;;;;;;;;;;5055911;27;92810;-77
2022/06/11 13:46:25;;;;;;;12.57;2.60;;;;;;;;;;5054446;27;92467;-77
2022/06/11 13:48:59;;;;;;;17.45;3.28;;;;;;;;;;5055773;27;94262;-77
2022/06/11 13:51:32;;;;;;;13.65;2.92;;;;;;;;;;5035400;27;96061;-77
2022/06/11 13:57:00;;;;;;;14.45;2.70;;;;;;;;;;5034680;28;93214;-77
2022/06/11 13:59:28;;;;;;;15.43;2.97;;;;;;;;;;5039929;27;92461;-77
2022/06/11 14:02:03;;;;;;;15.57;3.17;;;;;;;;;;5053448;27;93336;-75
2022/06/11 14:04:38;;;;;;;23.05;3.50;;;;;;;;;;5054375;27;94480;-77
2022/06/11 14:07:06;;;;;;;16.77;3.00;;;;;;;;;;5055232;27;92442;-77
2022/06/11 14:12:37;;;;;;;12.18;3.15;;;;;;;;;;5053948;27;93503;-77
2022/06/11 14:15:14;;;;;;;19.60;3.25;;;;;;;;;;5053858;27;93855;-77
2022/06/11 14:17:46;;;;;;;15.05;3.15;;;;;;;;;;5045860;27;94874;-78
2022/06/11 14:20:16;;;;;;;15.60;2.90;;;;;;;;;;5055211;27;92443;-76
2022/06/11 14:22:42;;;;;;;;;;;;;;;;;;5054381;27;93094;-77
2022/06/11 14:25:09;;;;;;;13.15;2.85;;;;;;;;;;5055096;27;123961;-77
2022/06/11 14:27:38;;;;;;;11.45;2.58;;;;;;;;;;5054804;27;92406;-76
2022/06/11 14:30:07;;;;;;;17.93;3.60;;;;;;;;;;5035561;27;94118;-77
2022/06/11 14:32:37;;;;;;;17.10;3.08;;;;;;;;;;5054462;27;93585;-77
2022/06/11 14:35:21;;;;;;;21.65;3.47;;;;;;;;;;5054270;27;91702;-76
2022/06/11 14:37:48;;;;;;;16.48;3.47;;;;;;;;;;5050509;27;93683;-77
2022/06/11 14:40:20;;;;;;;14.60;3.08;;;;;;;;;;5057722;27;93594;-77
2022/06/11 14:42:55;;;;;;;16.45;3.80;;;;;;;;;;5052239;27;94826;-77
2022/06/11 14:45:36;;;;;;;22.45;3.70;;;;;;;;;;5051934;27;93378;-77
2022/06/11 14:48:04;;;;;;;10.10;2.72;;;;;;;;;;5058474;27;92416;-77
2022/06/11 14:50:36;;;;;;;18.75;3.03;;;;;;;;;;5029775;27;93347;-76
2022/06/11 14:53:05;;;;;;;17.13;3.10;;;;;;;;;;5072810;27;94604;-77
2022/06/11 14:55:33;;;;;;;14.90;3.15;;;;;;;;;;5056721;27;93559;-78
2022/06/11 14:58:15;;;;;;;12.35;2.70;;;;;;;;;;5057623;27;92975;-77
2022/06/11 15:00:50;;;;;;;18.70;2.72;;;;;;;;;;5061571;27;91627;-77